createdAt,value
2023-01-21T00:01:07.232Z,7.40
2023-01-21T00:03:34.445Z,7.18
2023-01-21T00:06:02.104Z,6.20
2023-01-21T00:08:29.214Z,6.30
2023-01-21T00:10:56.630Z,7.03
2023-01-21T00:13:23.934Z,7.25
2023-01-21T00:15:51.415Z,6.03
2023-01-21T00:18:18.638Z,7.38
2023-01-21T00:20:46.662Z,8.38
2023-01-21T00:23:13.882Z,6.53
2023-01-21T00:25:41.207Z,5.80
2023-01-21T00:28:08.491Z,8.50
2023-01-21T00:30:37.207Z,7.97
2023-01-21T00:33:04.745Z,7.70
2023-01-21T00:35:31.942Z,5.80
2023-01-21T00:37:59.060Z,7.13
2023-01-21T00:40:26.138Z,6.85
2023-01-21T00:42:53.262Z,6.57
2023-01-21T00:45:20.296Z,6.55
2023-01-21T00:47:47.647Z,6.75
2023-01-21T00:50:14.919Z,5.93
2023-01-21T00:52:42.057Z,5.45
2023-01-21T00:55:09.425Z,7.10
2023-01-21T00:57:36.570Z,7.30
2023-01-21T01:00:05.169Z,7.63
2023-01-21T01:02:32.247Z,5.55
2023-01-21T01:04:59.245Z,6.60
2023-01-21T01:07:26.462Z,5.90
2023-01-21T01:09:53.452Z,8.15
2023-01-21T01:12:20.543Z,4.55
2023-01-21T01:14:48.023Z,4.95
2023-01-21T01:17:15.033Z,7.72
2023-01-21T01:19:42.061Z,6.15
2023-01-21T01:22:09.339Z,6.45
2023-01-21T01:24:36.464Z,6.45
2023-01-21T01:27:03.645Z,6.45
2023-01-21T01:29:30.840Z,6.32
2023-01-21T01:31:58.184Z,7.28
2023-01-21T01:34:25.319Z,6.57
2023-01-21T01:36:52.438Z,6.13
2023-01-21T01:39:19.664Z,5.13
2023-01-21T01:41:46.814Z,4.35
2023-01-21T01:44:51.247Z,6.10
2023-01-21T01:47:19.183Z,5.72
2023-01-21T01:49:47.911Z,5.10
2023-01-21T01:52:17.774Z,5.03
2023-01-21T01:54:51.641Z,6.65
2023-01-21T01:57:22.995Z,5.60
2023-01-21T01:59:51.561Z,6.50
2023-01-21T02:02:20.159Z,4.78
2023-01-21T02:05:00.631Z,5.72
2023-01-21T02:07:30.925Z,5.17
2023-01-21T02:09:58.423Z,4.30
2023-01-21T02:12:25.722Z,5.75
2023-01-21T02:14:52.840Z,7.00
2023-01-21T02:17:53.577Z,5.05
2023-01-21T02:20:59.855Z,7.20
2023-01-21T02:23:38.725Z,5.97
2023-01-21T02:26:29.603Z,6.35
2023-01-21T02:29:25.789Z,5.72
2023-01-21T02:31:58.795Z,5.22
2023-01-21T02:34:31.532Z,6.22
2023-01-21T02:37:01.434Z,4.30
2023-01-21T02:39:33.053Z,6.57
2023-01-21T02:42:05.217Z,5.20
2023-01-21T02:44:42.980Z,4.13
2023-01-21T02:47:27.127Z,5.50
2023-01-21T02:50:15.171Z,4.82
2023-01-21T02:52:42.315Z,4.97
2023-01-21T02:55:16.396Z,4.68
2023-01-21T02:57:49.763Z,4.28
2023-01-21T03:00:28.430Z,4.03
2023-01-21T03:03:32.671Z,5.28
2023-01-21T03:06:18.785Z,4.47
2023-01-21T03:08:52.889Z,5.85
2023-01-21T03:11:21.808Z,4.65
2023-01-21T03:14:16.959Z,4.38
2023-01-21T03:16:58.937Z,5.07
2023-01-21T03:19:50.594Z,4.72
2023-01-21T03:22:22.569Z,4.03
2023-01-21T03:24:52.191Z,3.47
2023-01-21T03:27:24.356Z,3.70
2023-01-21T03:29:57.487Z,4.45
2023-01-21T03:32:27.751Z,3.75
2023-01-21T03:34:56.197Z,4.72
2023-01-21T03:37:36.250Z,5.22
2023-01-21T03:40:24.336Z,3.17
2023-01-21T03:42:52.913Z,5.75
2023-01-21T03:45:47.788Z,4.60
2023-01-21T03:48:27.241Z,4.60
2023-01-21T03:50:59.390Z,5.13
2023-01-21T03:53:26.295Z,3.15
2023-01-21T03:55:53.216Z,3.92
2023-01-21T03:58:20.295Z,4.57
2023-01-21T04:00:48.630Z,4.20
2023-01-21T04:03:15.457Z,4.10
2023-01-21T04:05:42.309Z,4.75
2023-01-21T04:08:09.328Z,4.95
2023-01-21T04:10:36.381Z,4.55
2023-01-21T04:13:03.287Z,3.22
2023-01-21T04:15:30.074Z,3.63
2023-01-21T04:17:56.938Z,3.97
2023-01-21T04:20:23.783Z,3.75
2023-01-21T04:22:50.663Z,3.80
2023-01-21T04:25:17.556Z,5.68
2023-01-21T04:27:44.401Z,4.30
2023-01-21T04:30:11.505Z,2.88
2023-01-21T04:32:38.331Z,3.97
2023-01-21T04:35:05.476Z,4.18
2023-01-21T04:37:32.347Z,3.72
2023-01-21T04:39:59.170Z,3.63
2023-01-21T04:42:26.018Z,3.63
2023-01-21T04:44:52.834Z,3.42
2023-01-21T04:47:19.650Z,4.05
2023-01-21T04:49:46.567Z,4.15
2023-01-21T04:52:13.365Z,4.35
2023-01-21T04:54:40.191Z,3.67
2023-01-21T04:57:07.118Z,4.30
2023-01-21T04:59:34.234Z,3.53
2023-01-21T05:02:01.062Z,3.35
2023-01-21T05:04:27.949Z,3.58
2023-01-21T05:06:55.952Z,3.28
2023-01-21T05:09:22.797Z,3.38
2023-01-21T05:11:49.709Z,4.35
2023-01-21T05:14:16.532Z,4.43
2023-01-21T05:16:43.402Z,4.35
2023-01-21T05:19:10.296Z,3.20
2023-01-21T05:21:37.180Z,3.45
2023-01-21T05:24:04.159Z,3.92
2023-01-21T05:26:30.996Z,4.68
2023-01-21T05:28:57.800Z,2.47
2023-01-21T05:31:25.438Z,3.85
2023-01-21T05:33:52.337Z,4.15
2023-01-21T05:36:19.205Z,3.08
2023-01-21T05:38:46.045Z,3.20
2023-01-21T05:41:12.824Z,3.58
2023-01-21T05:43:39.651Z,3.33
2023-01-21T05:46:06.664Z,6.03
2023-01-21T05:48:33.526Z,3.83
2023-01-21T05:51:00.401Z,4.75
2023-01-21T05:53:27.466Z,2.90
2023-01-21T05:55:55.668Z,2.97
2023-01-21T05:58:23.642Z,2.60
2023-01-21T06:00:50.897Z,3.75
2023-01-21T06:03:18.991Z,2.92
2023-01-21T06:05:47.268Z,5.50
2023-01-21T06:08:14.093Z,10.23
2023-01-21T06:10:41.313Z,7.43
2023-01-21T06:13:11.394Z,13.30
2023-01-21T06:15:38.368Z,9.35
2023-01-21T06:18:05.381Z,5.68
2023-01-21T06:20:32.577Z,7.82
2023-01-21T06:23:02.032Z,8.13
2023-01-21T06:25:28.877Z,6.43
2023-01-21T06:27:56.307Z,29.25
2023-01-21T06:30:24.662Z,15.38
2023-01-21T06:32:52.324Z,24.27
2023-01-21T06:35:19.691Z,15.95
2023-01-21T06:37:46.731Z,19.88
2023-01-21T06:40:14.709Z,15.88
2023-01-21T06:42:41.710Z,10.23
2023-01-21T06:45:09.320Z,20.33
2023-01-21T06:47:36.256Z,16.88
2023-01-21T06:50:03.132Z,11.75
2023-01-21T06:52:30.006Z,23.25
2023-01-21T06:54:56.841Z,12.60
2023-01-21T06:57:23.882Z,29.00
2023-01-21T06:59:50.945Z,14.48
2023-01-21T07:02:17.839Z,17.52
2023-01-21T07:04:45.646Z,15.73
2023-01-21T07:07:12.552Z,17.17
2023-01-21T07:09:39.425Z,16.30
2023-01-21T07:12:06.413Z,31.65
2023-01-21T07:14:33.266Z,11.93
2023-01-21T07:17:00.066Z,26.35
2023-01-21T07:19:27.359Z,23.45
2023-01-21T07:21:54.850Z,29.13
2023-01-21T07:24:21.968Z,34.05
2023-01-21T07:26:48.935Z,28.60
2023-01-21T07:29:16.014Z,22.75
2023-01-21T07:31:42.872Z,21.73
2023-01-21T07:34:09.917Z,11.68
2023-01-21T07:36:36.804Z,20.15
2023-01-21T07:39:03.816Z,14.10
2023-01-21T07:41:30.766Z,19.58
2023-01-21T07:43:57.780Z,15.30
2023-01-21T07:46:24.743Z,11.27
2023-01-21T07:48:52.594Z,18.52
2023-01-21T07:51:20.533Z,20.70
2023-01-21T07:53:47.907Z,18.95
2023-01-21T07:56:15.258Z,14.05
2023-01-21T07:58:42.253Z,21.58
2023-01-21T08:01:10.130Z,16.48
2023-01-21T08:03:37.846Z,12.43
2023-01-21T08:06:06.353Z,13.75
2023-01-21T08:08:33.886Z,18.90
2023-01-21T08:11:00.752Z,15.20
2023-01-21T08:13:27.663Z,7.88
2023-01-21T08:15:56.369Z,11.60
2023-01-21T08:18:24.601Z,7.35
2023-01-21T08:20:56.218Z,13.15
2023-01-21T08:23:23.208Z,19.52
2023-01-21T08:25:50.403Z,10.55
2023-01-21T08:28:17.609Z,14.50
2023-01-21T08:30:44.963Z,10.18
2023-01-21T08:33:11.948Z,12.20
2023-01-21T08:35:38.949Z,24.60
2023-01-21T08:38:06.259Z,18.02
2023-01-21T08:40:33.110Z,15.00
2023-01-21T08:43:01.770Z,21.42
2023-01-21T08:45:29.130Z,11.98
2023-01-21T08:47:56.552Z,13.07
2023-01-21T08:50:26.805Z,9.30
2023-01-21T08:52:55.421Z,26.38
2023-01-21T08:55:26.949Z,17.77
2023-01-21T08:57:54.912Z,11.45
2023-01-21T09:00:23.093Z,17.00
2023-01-21T09:02:51.700Z,8.77
2023-01-21T09:05:19.013Z,7.47
2023-01-21T09:07:46.738Z,7.40
2023-01-21T09:10:33.990Z,13.38
2023-01-21T09:13:08.619Z,9.55
2023-01-21T09:15:43.330Z,18.48
2023-01-21T09:18:10.412Z,8.57
2023-01-21T09:20:37.981Z,10.85
2023-01-21T09:23:24.586Z,9.73
2023-01-21T09:25:53.678Z,10.45
2023-01-21T09:28:22.107Z,10.27
2023-01-21T09:30:49.130Z,11.55
2023-01-21T09:33:16.762Z,9.95
2023-01-21T09:35:44.631Z,13.60
2023-01-21T09:38:13.106Z,7.75
2023-01-21T09:40:45.458Z,8.00
2023-01-21T09:43:20.428Z,10.20
2023-01-21T09:45:50.879Z,5.45
2023-01-21T09:48:31.908Z,5.05
2023-01-21T09:51:03.578Z,3.85
2023-01-21T09:53:44.092Z,4.97
2023-01-21T09:56:23.330Z,5.07
2023-01-21T09:59:21.038Z,5.53
2023-01-21T10:01:50.281Z,5.72
2023-01-21T10:04:26.352Z,6.78
2023-01-21T10:06:53.365Z,34.00
2023-01-21T10:09:47.272Z,37.78
2023-01-21T10:12:29.079Z,45.03
2023-01-21T10:15:02.061Z,48.88
2023-01-21T10:17:56.028Z,107.63
2023-01-21T10:20:56.013Z,106.82
2023-01-21T10:23:45.244Z,79.70
2023-01-21T10:26:14.185Z,47.38
2023-01-21T10:28:57.105Z,48.97
2023-01-21T10:31:27.521Z,29.00
2023-01-21T10:33:55.084Z,43.28
2023-01-21T10:36:45.070Z,40.97
2023-01-21T10:39:45.336Z,35.63
2023-01-21T10:42:17.566Z,39.55
2023-01-21T10:44:48.253Z,35.30
2023-01-21T10:47:20.705Z,56.72
2023-01-21T10:50:18.418Z,37.25
2023-01-21T10:52:47.977Z,38.75
2023-01-21T10:55:34.885Z,23.05
2023-01-21T10:58:05.797Z,47.60
2023-01-21T11:00:39.051Z,40.97
2023-01-21T11:03:15.786Z,28.20
2023-01-21T11:05:43.853Z,32.90
2023-01-21T11:08:21.818Z,27.23
2023-01-21T11:10:53.675Z,24.88
2023-01-21T11:13:20.727Z,33.10
2023-01-21T11:15:55.308Z,22.30
2023-01-21T11:18:42.595Z,19.38
2023-01-21T11:21:20.331Z,22.48
2023-01-21T11:23:56.324Z,15.77
2023-01-21T11:26:29.082Z,13.38
2023-01-21T11:29:16.948Z,12.93
2023-01-21T11:32:02.749Z,9.60
2023-01-21T11:34:30.437Z,8.77
2023-01-21T11:37:06.983Z,10.55
2023-01-21T11:39:38.531Z,11.30
2023-01-21T11:42:12.141Z,6.43
2023-01-21T11:44:53.953Z,10.50
2023-01-21T11:47:30.389Z,14.10
2023-01-21T11:50:10.348Z,15.02
2023-01-21T11:52:37.368Z,13.18
2023-01-21T11:55:13.074Z,8.85
2023-01-21T11:57:40.170Z,15.18
2023-01-21T12:00:18.661Z,13.43
2023-01-21T12:02:51.509Z,12.43
2023-01-21T12:05:29.622Z,16.63
2023-01-21T12:07:57.548Z,28.55
2023-01-21T12:10:27.432Z,28.35
2023-01-21T12:13:13.054Z,41.50
2023-01-21T12:16:03.851Z,24.83
2023-01-21T12:18:42.967Z,51.75
2023-01-21T12:21:28.116Z,33.47
2023-01-21T12:24:20.959Z,29.70
2023-01-21T12:26:56.592Z,37.75
2023-01-21T12:29:57.594Z,61.13
2023-01-21T12:32:39.727Z,46.55
2023-01-21T12:35:24.893Z,39.72
2023-01-21T12:37:59.455Z,38.15
2023-01-21T12:41:18.777Z,29.60
2023-01-21T12:43:52.958Z,30.15
2023-01-21T12:46:49.204Z,39.83
2023-01-21T12:49:24.808Z,23.85
2023-01-21T12:52:00.019Z,24.35
2023-01-21T12:54:48.674Z,26.90
2023-01-21T12:57:29.712Z,46.58
2023-01-21T13:00:37.844Z,115.18
2023-01-21T13:03:17.678Z,99.70
2023-01-21T13:05:55.498Z,97.85
2023-01-21T13:08:34.976Z,76.97
2023-01-21T13:11:22.575Z,93.80
2023-01-21T13:14:07.879Z,86.50
2023-01-21T13:16:39.873Z,72.40
2023-01-21T13:19:09.797Z,71.15
2023-01-21T13:21:43.354Z,65.15
2023-01-21T13:24:23.180Z,64.88
2023-01-21T13:27:16.894Z,59.45
2023-01-21T13:30:20.275Z,75.97
2023-01-21T13:32:58.975Z,59.35
2023-01-21T13:35:41.467Z,123.65
2023-01-21T13:38:19.285Z,64.05
2023-01-21T13:41:14.045Z,71.65
2023-01-21T13:43:55.060Z,57.13
2023-01-21T13:46:22.254Z,52.13
2023-01-21T13:49:12.127Z,54.10
2023-01-21T13:51:44.231Z,41.40
2023-01-21T13:54:25.592Z,40.13
2023-01-21T14:00:18.264Z,60.28
2023-01-21T14:03:07.478Z,31.45
2023-01-21T14:05:47.110Z,59.95
2023-01-21T14:08:35.924Z,32.65
2023-01-21T14:11:25.211Z,30.60
2023-01-21T14:14:04.218Z,26.70
2023-01-21T14:16:47.097Z,42.08
2023-01-21T14:19:41.607Z,30.05
2023-01-21T14:22:20.452Z,31.80
2023-01-21T14:24:47.758Z,25.52
2023-01-21T14:27:51.607Z,15.93
2023-01-21T14:30:29.312Z,15.45
2023-01-21T14:33:08.227Z,24.02
2023-01-21T14:35:48.036Z,26.65
2023-01-21T14:38:24.422Z,27.20
2023-01-21T14:41:03.587Z,38.38
2023-01-21T14:43:30.536Z,32.85
2023-01-21T14:45:59.938Z,36.45
2023-01-21T14:48:32.194Z,22.77
2023-01-21T14:51:08.283Z,18.75
2023-01-21T14:53:50.711Z,23.13
2023-01-21T14:56:29.372Z,15.10
2023-01-21T14:59:06.195Z,16.92
2023-01-21T15:01:36.197Z,15.02
2023-01-21T15:04:08.217Z,12.55
2023-01-21T15:06:40.455Z,14.07
2023-01-21T15:09:15.521Z,61.58
2023-01-21T15:11:44.373Z,9.45
2023-01-21T15:14:21.985Z,7.53
2023-01-21T15:16:49.137Z,8.77
2023-01-21T15:19:24.281Z,7.22
2023-01-21T15:22:00.197Z,8.15
2023-01-21T15:24:30.661Z,5.25
2023-01-21T15:27:12.971Z,6.43
2023-01-21T15:29:42.285Z,7.53
2023-01-21T15:32:49.156Z,6.53
2023-01-21T15:35:18.903Z,6.30
2023-01-21T15:37:49.361Z,8.32
2023-01-21T15:40:25.786Z,5.63
2023-01-21T15:43:03.362Z,5.50
2023-01-21T15:45:48.863Z,5.57
2023-01-21T15:48:41.174Z,7.53
2023-01-21T15:51:50.405Z,4.05
2023-01-21T15:54:29.261Z,4.97
2023-01-21T15:57:14.960Z,13.23
2023-01-21T15:59:59.993Z,19.23
2023-01-21T16:02:32.068Z,12.25
2023-01-21T16:05:07.135Z,7.45
2023-01-21T16:08:04.285Z,18.42
2023-01-21T16:10:57.537Z,11.98
2023-01-21T16:13:47.421Z,5.85
2023-01-21T16:16:15.817Z,21.17
2023-01-21T16:18:51.721Z,11.07
2023-01-21T16:21:23.003Z,13.48
2023-01-21T16:23:52.311Z,12.27
2023-01-21T16:26:32.997Z,21.02
2023-01-21T16:29:00.948Z,9.27
2023-01-21T16:31:28.209Z,9.63
2023-01-21T16:33:55.191Z,21.92
2023-01-21T16:36:22.261Z,13.75
2023-01-21T16:38:49.381Z,8.13
2023-01-21T16:41:24.392Z,9.60
2023-01-21T16:43:58.358Z,30.10
2023-01-21T16:46:32.955Z,29.67
2023-01-21T16:49:01.594Z,14.35
2023-01-21T16:51:35.126Z,16.30
2023-01-21T16:54:20.690Z,19.38
2023-01-21T16:56:48.954Z,15.77
2023-01-21T16:59:25.620Z,12.25
2023-01-21T17:01:53.494Z,15.55
2023-01-21T17:04:20.690Z,14.63
2023-01-21T17:06:47.891Z,27.25
2023-01-21T17:09:36.630Z,41.42
2023-01-21T17:12:08.815Z,34.50
2023-01-21T17:14:37.368Z,41.50
2023-01-21T17:17:08.280Z,38.72
2023-01-21T17:19:38.745Z,21.95
2023-01-21T17:22:27.602Z,57.08
2023-01-21T17:25:23.905Z,45.20
2023-01-21T17:27:50.968Z,16.48
2023-01-21T17:30:38.333Z,35.95
2023-01-21T17:33:05.472Z,41.58
2023-01-21T17:35:35.920Z,57.13
2023-01-21T17:38:06.105Z,74.00
2023-01-21T17:40:48.184Z,87.68
2023-01-21T17:43:25.617Z,89.70
2023-01-21T17:45:55.382Z,78.22
2023-01-21T17:48:46.269Z,83.95
2023-01-21T17:51:18.014Z,88.03
2023-01-21T17:53:56.693Z,72.70
2023-01-21T17:56:40.578Z,73.05
2023-01-21T17:59:38.065Z,80.18
2023-01-21T18:02:10.665Z,57.55
2023-01-21T18:04:37.628Z,50.22
2023-01-21T18:07:15.978Z,31.35
2023-01-21T18:09:43.458Z,32.25
2023-01-21T18:12:11.530Z,32.58
2023-01-21T18:14:38.443Z,36.65
2023-01-21T18:17:05.500Z,26.45
2023-01-21T18:19:38.092Z,28.92
2023-01-21T18:22:07.302Z,38.58
2023-01-21T18:24:35.888Z,58.03
2023-01-21T18:27:03.540Z,36.30
2023-01-21T18:29:31.474Z,34.03
2023-01-21T18:31:59.426Z,30.95
2023-01-21T18:34:26.575Z,15.93
2023-01-21T18:36:54.977Z,18.80
2023-01-21T18:39:22.232Z,16.83
2023-01-21T18:41:49.161Z,17.25
2023-01-21T18:44:17.106Z,11.75
2023-01-21T18:46:44.427Z,13.25
2023-01-21T18:49:15.850Z,8.18
2023-01-21T18:51:43.710Z,9.88
2023-01-21T18:54:11.731Z,10.98
2023-01-21T18:56:38.911Z,12.23
2023-01-21T18:59:32.369Z,11.05
2023-01-21T19:01:59.640Z,9.27
2023-01-21T19:04:28.878Z,9.00
2023-01-21T19:06:56.153Z,8.70
2023-01-21T19:09:25.668Z,8.50
2023-01-21T19:11:53.047Z,9.48
2023-01-21T19:14:19.995Z,4.22
2023-01-21T19:16:47.190Z,4.38
2023-01-21T19:19:16.179Z,5.88
2023-01-21T19:21:43.558Z,6.50
2023-01-21T19:24:12.236Z,7.18
2023-01-21T19:26:40.754Z,5.30
2023-01-21T19:29:16.871Z,5.90
2023-01-21T19:31:44.258Z,14.60
2023-01-21T19:34:11.557Z,11.65
2023-01-21T19:36:40.624Z,16.60
2023-01-21T19:39:18.334Z,22.55
2023-01-21T19:41:48.518Z,17.83
2023-01-21T19:44:15.979Z,14.80
2023-01-21T19:46:43.670Z,14.98
2023-01-21T19:49:16.429Z,46.50
2023-01-21T19:51:44.722Z,34.15
2023-01-21T19:54:11.863Z,34.05
2023-01-21T19:56:39.738Z,34.65
2023-01-21T19:59:12.206Z,30.50
2023-01-21T20:01:39.974Z,30.67
2023-01-21T20:04:07.795Z,27.38
2023-01-21T20:06:40.899Z,27.65
2023-01-21T20:09:16.243Z,27.63
2023-01-21T20:11:43.767Z,24.88
2023-01-21T20:14:12.150Z,21.02
2023-01-21T20:16:47.571Z,27.40
2023-01-21T20:19:17.713Z,20.80
2023-01-21T20:21:59.850Z,19.17
2023-01-21T20:24:30.674Z,63.20
2023-01-21T20:26:59.583Z,24.05
2023-01-21T20:29:30.115Z,34.60
2023-01-21T20:31:57.427Z,33.40
2023-01-21T20:34:25.602Z,25.20
2023-01-21T20:36:54.555Z,39.25
2023-01-21T20:39:22.605Z,31.33
2023-01-21T20:41:50.550Z,35.92
2023-01-21T20:44:18.707Z,27.88
2023-01-21T20:46:46.938Z,27.67
2023-01-21T20:49:14.999Z,24.52
2023-01-21T20:51:47.649Z,19.27
2023-01-21T20:54:15.966Z,15.93
2023-01-21T20:56:44.272Z,31.77
2023-01-21T20:59:11.956Z,13.27
2023-01-21T21:01:40.495Z,13.45
2023-01-21T21:04:09.301Z,13.15
2023-01-21T21:06:37.938Z,18.42
2023-01-21T21:09:06.902Z,26.02
2023-01-21T21:11:34.946Z,35.55
2023-01-21T21:14:05.255Z,13.10
2023-01-21T21:16:36.252Z,18.93
2023-01-21T21:19:04.767Z,25.13
2023-01-21T21:21:32.457Z,19.83
2023-01-21T21:24:01.214Z,9.02
2023-01-21T21:26:33.971Z,10.18
2023-01-21T21:29:01.820Z,14.75
2023-01-21T21:31:33.108Z,7.82
2023-01-21T21:34:00.548Z,15.00
2023-01-21T21:36:27.996Z,7.90
2023-01-21T21:38:58.097Z,17.05
2023-01-21T21:41:45.815Z,10.52
2023-01-21T21:44:14.285Z,13.10
2023-01-21T21:47:00.219Z,10.52
2023-01-21T21:49:29.175Z,7.97
2023-01-21T21:51:57.336Z,8.90
2023-01-21T21:54:24.357Z,6.90
2023-01-21T21:56:52.034Z,7.38
2023-01-21T21:59:19.289Z,10.02
2023-01-21T22:01:46.900Z,26.10
2023-01-21T22:04:14.164Z,13.95
2023-01-21T22:06:41.755Z,14.73
2023-01-21T22:09:09.697Z,14.95
2023-01-21T22:11:36.971Z,8.85
2023-01-21T22:14:05.227Z,4.22
2023-01-21T22:16:34.598Z,7.45
2023-01-21T22:19:03.658Z,6.10
2023-01-21T22:21:33.629Z,6.72
2023-01-21T22:24:03.088Z,7.70
2023-01-21T22:26:30.227Z,4.93
2023-01-21T22:28:58.137Z,8.32
2023-01-21T22:31:27.742Z,5.05
2023-01-21T22:33:55.359Z,5.53
2023-01-21T22:36:24.642Z,4.85
2023-01-21T22:38:52.928Z,5.32
2023-01-21T22:41:22.625Z,5.50
2023-01-21T22:43:50.784Z,2.47
2023-01-21T22:46:24.018Z,3.53
2023-01-21T22:48:51.430Z,4.30
2023-01-21T22:51:19.898Z,4.82
2023-01-21T22:53:48.115Z,3.42
2023-01-21T22:56:17.681Z,4.35
2023-01-21T22:58:45.256Z,2.80
2023-01-21T23:01:23.078Z,2.88
2023-01-21T23:03:50.306Z,4.47
2023-01-21T23:06:18.312Z,3.33
2023-01-21T23:08:45.846Z,3.65
2023-01-21T23:11:17.781Z,2.35
2023-01-21T23:13:46.101Z,2.38
2023-01-21T23:16:19.423Z,2.70
2023-01-21T23:18:46.472Z,3.05
2023-01-21T23:21:17.709Z,2.42
2023-01-21T23:26:13.574Z,3.22
2023-01-21T23:28:41.151Z,4.22
2023-01-21T23:31:15.479Z,3.22
2023-01-21T23:33:43.041Z,2.30
2023-01-21T23:36:13.739Z,3.55
2023-01-21T23:38:41.977Z,3.05
2023-01-21T23:41:11.706Z,2.55
2023-01-21T23:43:39.576Z,3.47
2023-01-21T23:46:08.782Z,3.47
2023-01-21T23:48:35.784Z,3.08
2023-01-21T23:51:08.163Z,2.60
2023-01-21T23:53:37.574Z,3.00
2023-01-21T23:56:06.880Z,2.78
2023-01-21T23:58:38.428Z,3.00
